sensor_id;sensor_type;location;lat;lon;timestamp;pressure;altitude;pressure_sealevel;temperature;humidity
71465;BME280;59274;49.874;9.154;2023-04-27T00:01:11;100518.56;;;5.81;92.29
71465;BME280;59274;49.874;9.154;2023-04-27T00:03:38;100520.78;;;5.79;91.70
71465;BME280;59274;49.874;9.154;2023-04-27T00:06:04;100523.53;;;5.91;92.34
71465;BME280;59274;49.874;9.154;2023-04-27T00:08:32;100519.34;;;5.81;93.96
71465;BME280;59274;49.874;9.154;2023-04-27T00:10:58;100519.44;;;5.85;93.56
71465;BME280;59274;49.874;9.154;2023-04-27T00:13:23;100517.28;;;5.78;93.54
71465;BME280;59274;49.874;9.154;2023-04-27T00:15:49;100514.59;;;5.78;93.34
71465;BME280;59274;49.874;9.154;2023-04-27T00:18:14;100523.38;;;5.75;91.29
71465;BME280;59274;49.874;9.154;2023-04-27T00:20:40;100519.97;;;5.66;92.93
71465;BME280;59274;49.874;9.154;2023-04-27T00:23:05;100517.72;;;5.68;90.61
71465;BME280;59274;49.874;9.154;2023-04-27T00:25:31;100512.09;;;5.61;89.46
71465;BME280;59274;49.874;9.154;2023-04-27T00:27:57;100516.34;;;5.62;90.10
71465;BME280;59274;49.874;9.154;2023-04-27T00:30:22;100508.25;;;5.62;89.75
71465;BME280;59274;49.874;9.154;2023-04-27T00:32:48;100506.91;;;5.56;90.95
71465;BME280;59274;49.874;9.154;2023-04-27T00:35:13;100499.81;;;5.51;91.39
71465;BME280;59274;49.874;9.154;2023-04-27T00:37:39;100504.88;;;5.53;91.80
71465;BME280;59274;49.874;9.154;2023-04-27T00:40:05;100503.31;;;5.52;95.04
71465;BME280;59274;49.874;9.154;2023-04-27T00:42:34;100509.81;;;5.51;95.54
71465;BME280;59274;49.874;9.154;2023-04-27T00:45:00;100505.19;;;5.51;95.04
71465;BME280;59274;49.874;9.154;2023-04-27T00:47:26;100508.78;;;5.56;95.59
71465;BME280;59274;49.874;9.154;2023-04-27T00:49:52;100504.53;;;5.55;97.51
71465;BME280;59274;49.874;9.154;2023-04-27T00:52:17;100502.28;;;5.57;97.05
71465;BME280;59274;49.874;9.154;2023-04-27T00:54:43;100503.38;;;5.43;98.17
71465;BME280;59274;49.874;9.154;2023-04-27T00:57:09;100501.78;;;5.42;99.73
71465;BME280;59274;49.874;9.154;2023-04-27T00:59:34;100495.28;;;5.43;99.45
71465;BME280;59274;49.874;9.154;2023-04-27T01:02:00;100498.78;;;5.44;97.89
71465;BME280;59274;49.874;9.154;2023-04-27T01:04:26;100493.34;;;5.32;98.49
71465;BME280;59274;49.874;9.154;2023-04-27T01:06:53;100501.81;;;5.22;99.08
71465;BME280;59274;49.874;9.154;2023-04-27T01:09:19;100498.00;;;5.23;99.41
71465;BME280;59274;49.874;9.154;2023-04-27T01:11:45;100505.19;;;5.19;99.55
71465;BME280;59274;49.874;9.154;2023-04-27T01:14:11;100504.41;;;5.18;99.39
71465;BME280;59274;49.874;9.154;2023-04-27T01:16:36;100505.56;;;5.08;99.24
71465;BME280;59274;49.874;9.154;2023-04-27T01:19:03;100498.94;;;5.06;99.64
71465;BME280;59274;49.874;9.154;2023-04-27T01:21:29;100505.81;;;5.16;100.00
71465;BME280;59274;49.874;9.154;2023-04-27T01:23:55;100506.47;;;5.12;99.71
71465;BME280;59274;49.874;9.154;2023-04-27T01:26:21;100500.03;;;5.05;100.00
71465;BME280;59274;49.874;9.154;2023-04-27T01:28:47;100510.81;;;5.05;100.00
71465;BME280;59274;49.874;9.154;2023-04-27T01:31:12;100506.56;;;5.04;100.00
71465;BME280;59274;49.874;9.154;2023-04-27T01:33:38;100509.69;;;5.06;100.00
71465;BME280;59274;49.874;9.154;2023-04-27T01:36:05;100508.78;;;5.02;100.00
71465;BME280;59274;49.874;9.154;2023-04-27T01:38:32;100508.06;;;4.93;100.00
71465;BME280;59274;49.874;9.154;2023-04-27T01:40:57;100515.84;;;4.86;100.00
71465;BME280;59274;49.874;9.154;2023-04-27T01:43:30;100511.16;;;4.83;100.00
71465;BME280;59274;49.874;9.154;2023-04-27T01:46:03;100511.50;;;4.72;100.00
71465;BME280;59274;49.874;9.154;2023-04-27T01:48:29;100513.72;;;4.70;100.00
71465;BME280;59274;49.874;9.154;2023-04-27T01:50:54;100521.41;;;4.60;100.00
71465;BME280;59274;49.874;9.154;2023-04-27T01:53:20;100520.28;;;4.61;100.00
71465;BME280;59274;49.874;9.154;2023-04-27T01:55:46;100527.72;;;4.55;100.00
71465;BME280;59274;49.874;9.154;2023-04-27T01:58:11;100526.66;;;4.48;100.00
71465;BME280;59274;49.874;9.154;2023-04-27T02:00:36;100519.09;;;4.41;100.00
71465;BME280;59274;49.874;9.154;2023-04-27T02:03:02;100529.34;;;4.48;100.00
71465;BME280;59274;49.874;9.154;2023-04-27T02:05:27;100525.72;;;4.52;100.00
71465;BME280;59274;49.874;9.154;2023-04-27T02:07:53;100536.16;;;4.54;100.00
71465;BME280;59274;49.874;9.154;2023-04-27T02:10:18;100533.53;;;4.66;100.00
71465;BME280;59274;49.874;9.154;2023-04-27T02:12:46;100526.66;;;4.77;100.00
71465;BME280;59274;49.874;9.154;2023-04-27T02:15:12;100531.59;;;4.75;100.00
71465;BME280;59274;49.874;9.154;2023-04-27T02:17:38;100539.13;;;4.61;100.00
71465;BME280;59274;49.874;9.154;2023-04-27T02:20:05;100544.94;;;4.63;100.00
71465;BME280;59274;49.874;9.154;2023-04-27T02:22:34;100541.47;;;4.62;100.00
71465;BME280;59274;49.874;9.154;2023-04-27T02:24:59;100545.75;;;4.55;100.00
71465;BME280;59274;49.874;9.154;2023-04-27T02:27:25;100551.53;;;4.45;100.00
71465;BME280;59274;49.874;9.154;2023-04-27T02:29:50;100546.34;;;4.40;100.00
71465;BME280;59274;49.874;9.154;2023-04-27T02:32:16;100547.78;;;4.28;100.00
71465;BME280;59274;49.874;9.154;2023-04-27T02:34:41;100545.41;;;4.27;100.00
71465;BME280;59274;49.874;9.154;2023-04-27T02:37:07;100553.84;;;4.17;100.00
71465;BME280;59274;49.874;9.154;2023-04-27T02:39:32;100553.84;;;4.17;100.00
71465;BME280;59274;49.874;9.154;2023-04-27T02:41:58;100546.91;;;4.07;100.00
71465;BME280;59274;49.874;9.154;2023-04-27T02:44:23;100546.91;;;4.07;100.00
71465;BME280;59274;49.874;9.154;2023-04-27T02:46:49;100544.88;;;4.04;100.00
71465;BME280;59274;49.874;9.154;2023-04-27T02:49:15;100541.22;;;4.00;100.00
71465;BME280;59274;49.874;9.154;2023-04-27T02:51:40;100545.06;;;3.90;100.00
71465;BME280;59274;49.874;9.154;2023-04-27T02:54:06;100544.91;;;3.87;100.00
71465;BME280;59274;49.874;9.154;2023-04-27T02:56:31;100546.50;;;3.71;100.00
71465;BME280;59274;49.874;9.154;2023-04-27T02:58:56;100553.47;;;3.72;100.00
71465;BME280;59274;49.874;9.154;2023-04-27T03:01:22;100556.47;;;3.70;100.00
71465;BME280;59274;49.874;9.154;2023-04-27T03:03:47;100554.56;;;3.71;100.00
71465;BME280;59274;49.874;9.154;2023-04-27T03:06:13;100553.94;;;3.65;100.00
71465;BME280;59274;49.874;9.154;2023-04-27T03:08:39;100556.81;;;3.60;100.00
71465;BME280;59274;49.874;9.154;2023-04-27T03:11:05;100551.91;;;3.62;100.00
71465;BME280;59274;49.874;9.154;2023-04-27T03:13:30;100554.13;;;3.60;100.00
71465;BME280;59274;49.874;9.154;2023-04-27T03:16:02;100551.13;;;3.62;100.00
71465;BME280;59274;49.874;9.154;2023-04-27T03:18:28;100546.84;;;3.61;100.00
71465;BME280;59274;49.874;9.154;2023-04-27T03:20:53;100547.00;;;3.55;100.00
71465;BME280;59274;49.874;9.154;2023-04-27T03:23:18;100541.31;;;3.57;100.00
71465;BME280;59274;49.874;9.154;2023-04-27T03:25:44;100535.81;;;3.53;100.00
71465;BME280;59274;49.874;9.154;2023-04-27T03:28:09;100541.97;;;3.54;100.00
71465;BME280;59274;49.874;9.154;2023-04-27T03:30:38;100541.34;;;3.40;100.00
71465;BME280;59274;49.874;9.154;2023-04-27T03:33:03;100542.13;;;3.40;100.00
71465;BME280;59274;49.874;9.154;2023-04-27T03:35:28;100549.69;;;3.38;100.00
71465;BME280;59274;49.874;9.154;2023-04-27T03:37:54;100544.16;;;3.35;100.00
71465;BME280;59274;49.874;9.154;2023-04-27T03:40:19;100549.38;;;3.31;100.00
71465;BME280;59274;49.874;9.154;2023-04-27T03:42:45;100548.59;;;3.31;100.00
71465;BME280;59274;49.874;9.154;2023-04-27T03:45:10;100545.75;;;3.27;100.00
71465;BME280;59274;49.874;9.154;2023-04-27T03:47:36;100547.66;;;3.27;100.00
71465;BME280;59274;49.874;9.154;2023-04-27T03:50:01;100549.22;;;3.28;100.00
71465;BME280;59274;49.874;9.154;2023-04-27T03:52:28;100544.19;;;3.26;100.00
71465;BME280;59274;49.874;9.154;2023-04-27T03:54:53;100541.19;;;3.19;100.00
71465;BME280;59274;49.874;9.154;2023-04-27T03:57:19;100536.75;;;3.14;100.00
71465;BME280;59274;49.874;9.154;2023-04-27T03:59:44;100535.00;;;3.10;100.00
71465;BME280;59274;49.874;9.154;2023-04-27T04:02:10;100541.78;;;3.16;100.00
71465;BME280;59274;49.874;9.154;2023-04-27T04:04:35;100533.91;;;3.11;100.00
71465;BME280;59274;49.874;9.154;2023-04-27T04:07:01;100537.53;;;3.15;100.00
71465;BME280;59274;49.874;9.154;2023-04-27T04:09:26;100546.53;;;3.28;100.00
71465;BME280;59274;49.874;9.154;2023-04-27T04:11:52;100535.97;;;3.40;100.00
71465;BME280;59274;49.874;9.154;2023-04-27T04:14:17;100539.41;;;3.49;100.00
71465;BME280;59274;49.874;9.154;2023-04-27T04:16:43;100547.47;;;3.58;100.00
71465;BME280;59274;49.874;9.154;2023-04-27T04:19:08;100542.28;;;3.61;100.00
71465;BME280;59274;49.874;9.154;2023-04-27T04:21:33;100547.00;;;3.64;100.00
71465;BME280;59274;49.874;9.154;2023-04-27T04:24:02;100547.28;;;3.71;100.00
71465;BME280;59274;49.874;9.154;2023-04-27T04:26:27;100553.16;;;3.82;100.00
71465;BME280;59274;49.874;9.154;2023-04-27T04:28:52;100552.00;;;3.91;100.00
71465;BME280;59274;49.874;9.154;2023-04-27T04:31:18;100548.69;;;3.94;100.00
71465;BME280;59274;49.874;9.154;2023-04-27T04:33:45;100549.47;;;4.04;100.00
71465;BME280;59274;49.874;9.154;2023-04-27T04:36:11;100557.81;;;4.11;100.00
71465;BME280;59274;49.874;9.154;2023-04-27T04:38:36;100558.44;;;4.16;100.00
71465;BME280;59274;49.874;9.154;2023-04-27T04:41:02;100558.56;;;4.20;100.00
71465;BME280;59274;49.874;9.154;2023-04-27T04:43:27;100563.00;;;4.24;100.00
71465;BME280;59274;49.874;9.154;2023-04-27T04:45:53;100555.22;;;4.31;100.00
71465;BME280;59274;49.874;9.154;2023-04-27T04:48:18;100568.38;;;4.24;100.00
71465;BME280;59274;49.874;9.154;2023-04-27T04:50:44;100550.97;;;4.22;100.00
71465;BME280;59274;49.874;9.154;2023-04-27T04:53:10;100555.22;;;4.31;100.00
71465;BME280;59274;49.874;9.154;2023-04-27T04:55:35;100549.63;;;4.45;100.00
71465;BME280;59274;49.874;9.154;2023-04-27T04:58:01;100555.13;;;4.49;100.00
71465;BME280;59274;49.874;9.154;2023-04-27T05:00:26;100557.94;;;4.61;100.00
71465;BME280;59274;49.874;9.154;2023-04-27T05:02:51;100552.44;;;4.49;100.00
71465;BME280;59274;49.874;9.154;2023-04-27T05:05:17;100555.28;;;4.52;100.00
71465;BME280;59274;49.874;9.154;2023-04-27T05:07:43;100567.34;;;4.46;100.00
71465;BME280;59274;49.874;9.154;2023-04-27T05:10:08;100561.31;;;4.49;100.00
71465;BME280;59274;49.874;9.154;2023-04-27T05:12:34;100563.16;;;4.57;100.00
71465;BME280;59274;49.874;9.154;2023-04-27T05:14:59;100560.63;;;4.61;100.00
71465;BME280;59274;49.874;9.154;2023-04-27T05:17:25;100555.97;;;4.70;100.00
71465;BME280;59274;49.874;9.154;2023-04-27T05:19:50;100561.19;;;4.75;100.00
71465;BME280;59274;49.874;9.154;2023-04-27T05:22:16;100572.81;;;4.88;100.00
71465;BME280;59274;49.874;9.154;2023-04-27T05:24:41;100564.97;;;4.83;100.00
71465;BME280;59274;49.874;9.154;2023-04-27T05:27:08;100570.47;;;4.86;100.00
71465;BME280;59274;49.874;9.154;2023-04-27T05:29:33;100562.13;;;5.00;100.00
71465;BME280;59274;49.874;9.154;2023-04-27T05:31:59;100569.00;;;5.18;100.00
71465;BME280;59274;49.874;9.154;2023-04-27T05:34:24;100569.00;;;5.18;100.00
71465;BME280;59274;49.874;9.154;2023-04-27T05:36:50;100572.41;;;5.27;100.00
71465;BME280;59274;49.874;9.154;2023-04-27T05:39:15;100574.31;;;5.27;100.00
71465;BME280;59274;49.874;9.154;2023-04-27T05:41:40;100589.22;;;5.24;100.00
71465;BME280;59274;49.874;9.154;2023-04-27T05:44:06;100587.91;;;5.30;100.00
71465;BME280;59274;49.874;9.154;2023-04-27T05:46:32;100585.75;;;5.24;100.00
71465;BME280;59274;49.874;9.154;2023-04-27T05:48:58;100585.06;;;5.27;100.00
71465;BME280;59274;49.874;9.154;2023-04-27T05:51:24;100584.38;;;5.18;100.00
71465;BME280;59274;49.874;9.154;2023-04-27T05:53:49;100588.50;;;5.15;100.00
71465;BME280;59274;49.874;9.154;2023-04-27T05:56:15;100589.03;;;5.29;100.00
71465;BME280;59274;49.874;9.154;2023-04-27T05:58:40;100591.50;;;5.34;100.00
71465;BME280;59274;49.874;9.154;2023-04-27T06:01:06;100587.06;;;5.59;100.00
71465;BME280;59274;49.874;9.154;2023-04-27T06:03:32;100597.66;;;5.76;100.00
71465;BME280;59274;49.874;9.154;2023-04-27T06:06:00;100601.88;;;5.86;100.00
71465;BME280;59274;49.874;9.154;2023-04-27T06:08:26;100600.47;;;5.88;99.72
71465;BME280;59274;49.874;9.154;2023-04-27T06:10:52;100599.06;;;6.03;97.89
71465;BME280;59274;49.874;9.154;2023-04-27T06:13:19;100604.56;;;6.07;96.68
71465;BME280;59274;49.874;9.154;2023-04-27T06:15:44;100607.63;;;6.17;94.74
71465;BME280;59274;49.874;9.154;2023-04-27T06:18:11;100604.72;;;6.22;94.83
71465;BME280;59274;49.874;9.154;2023-04-27T06:20:36;100601.50;;;6.41;93.37
71465;BME280;59274;49.874;9.154;2023-04-27T06:23:02;100611.41;;;6.49;92.57
71465;BME280;59274;49.874;9.154;2023-04-27T06:25:27;100619.72;;;6.56;93.69
71465;BME280;59274;49.874;9.154;2023-04-27T06:27:56;100614.09;;;6.61;89.91
71465;BME280;59274;49.874;9.154;2023-04-27T06:30:22;100617.41;;;6.79;92.15
71465;BME280;59274;49.874;9.154;2023-04-27T06:32:49;100618.97;;;6.80;90.99
71465;BME280;59274;49.874;9.154;2023-04-27T06:35:14;100625.16;;;6.93;90.90
71465;BME280;59274;49.874;9.154;2023-04-27T06:37:40;100625.28;;;7.08;90.19
71465;BME280;59274;49.874;9.154;2023-04-27T06:40:06;100622.66;;;7.12;88.50
71465;BME280;59274;49.874;9.154;2023-04-27T06:42:32;100624.25;;;7.13;88.06
71465;BME280;59274;49.874;9.154;2023-04-27T06:44:58;100623.44;;;7.25;88.95
71465;BME280;59274;49.874;9.154;2023-04-27T06:47:24;100625.34;;;7.12;87.59
71465;BME280;59274;49.874;9.154;2023-04-27T06:49:49;100632.56;;;7.20;87.38
71465;BME280;59274;49.874;9.154;2023-04-27T06:52:15;100625.78;;;7.38;89.74
71465;BME280;59274;49.874;9.154;2023-04-27T06:54:41;100626.75;;;7.46;87.37
71465;BME280;59274;49.874;9.154;2023-04-27T06:57:07;100632.38;;;7.65;86.99
71465;BME280;59274;49.874;9.154;2023-04-27T06:59:32;100628.75;;;7.73;86.09
71465;BME280;59274;49.874;9.154;2023-04-27T07:01:58;100632.78;;;7.79;85.10
71465;BME280;59274;49.874;9.154;2023-04-27T07:04:23;100618.66;;;7.86;85.81
71465;BME280;59274;49.874;9.154;2023-04-27T07:06:49;100621.75;;;8.00;84.04
71465;BME280;59274;49.874;9.154;2023-04-27T07:09:14;100625.81;;;8.22;86.37
71465;BME280;59274;49.874;9.154;2023-04-27T07:11:40;100626.84;;;8.17;80.23
71465;BME280;59274;49.874;9.154;2023-04-27T07:14:05;100638.22;;;8.23;76.67
71465;BME280;59274;49.874;9.154;2023-04-27T07:16:30;100631.97;;;8.07;77.22
71465;BME280;59274;49.874;9.154;2023-04-27T07:18:56;100635.06;;;8.21;72.43
71465;BME280;59274;49.874;9.154;2023-04-27T07:21:21;100634.72;;;8.50;72.08
71465;BME280;59274;49.874;9.154;2023-04-27T07:23:47;100638.31;;;8.86;73.17
71465;BME280;59274;49.874;9.154;2023-04-27T07:26:12;100635.81;;;9.12;71.19
71465;BME280;59274;49.874;9.154;2023-04-27T07:28:37;100630.69;;;9.42;70.08
71465;BME280;59274;49.874;9.154;2023-04-27T07:31:04;100632.13;;;9.55;68.53
71465;BME280;59274;49.874;9.154;2023-04-27T07:33:30;100638.47;;;9.43;70.48
71465;BME280;59274;49.874;9.154;2023-04-27T07:35:56;100634.66;;;9.29;70.99
71465;BME280;59274;49.874;9.154;2023-04-27T07:38:21;100627.78;;;9.16;73.60
71465;BME280;59274;49.874;9.154;2023-04-27T07:40:47;100633.09;;;9.28;72.48
71465;BME280;59274;49.874;9.154;2023-04-27T07:43:14;100630.66;;;9.23;71.77
71465;BME280;59274;49.874;9.154;2023-04-27T07:45:40;100627.88;;;9.38;71.11
71465;BME280;59274;49.874;9.154;2023-04-27T07:48:06;100626.22;;;9.15;71.18
71465;BME280;59274;49.874;9.154;2023-04-27T07:50:31;100621.69;;;9.38;71.02
71465;BME280;59274;49.874;9.154;2023-04-27T07:52:57;100636.69;;;9.51;67.59
71465;BME280;59274;49.874;9.154;2023-04-27T07:55:24;100625.88;;;9.70;65.92
71465;BME280;59274;49.874;9.154;2023-04-27T07:57:56;100619.16;;;9.83;65.59
71465;BME280;59274;49.874;9.154;2023-04-27T08:00:22;100624.50;;;9.99;63.65
71465;BME280;59274;49.874;9.154;2023-04-27T08:02:49;100634.09;;;10.16;64.54
71465;BME280;59274;49.874;9.154;2023-04-27T08:05:15;100622.28;;;10.24;65.15
71465;BME280;59274;49.874;9.154;2023-04-27T08:07:40;100622.06;;;10.13;62.53
71465;BME280;59274;49.874;9.154;2023-04-27T08:10:07;100620.56;;;10.35;63.09
71465;BME280;59274;49.874;9.154;2023-04-27T08:12:32;100623.75;;;10.41;64.36
71465;BME280;59274;49.874;9.154;2023-04-27T08:14:58;100618.31;;;10.41;63.67
71465;BME280;59274;49.874;9.154;2023-04-27T08:17:24;100620.13;;;10.14;62.04
71465;BME280;59274;49.874;9.154;2023-04-27T08:19:49;100622.06;;;10.13;64.38
71465;BME280;59274;49.874;9.154;2023-04-27T08:22:15;100612.16;;;10.21;63.50
71465;BME280;59274;49.874;9.154;2023-04-27T08:24:40;100617.22;;;10.23;64.43
71465;BME280;59274;49.874;9.154;2023-04-27T08:27:06;100617.28;;;10.26;63.96
71465;BME280;59274;49.874;9.154;2023-04-27T08:29:31;100610.53;;;10.39;63.04
71465;BME280;59274;49.874;9.154;2023-04-27T08:31:58;100607.47;;;10.64;64.12
71465;BME280;59274;49.874;9.154;2023-04-27T08:34:25;100608.16;;;10.83;64.21
71465;BME280;59274;49.874;9.154;2023-04-27T08:36:50;100603.63;;;10.91;62.79
71465;BME280;59274;49.874;9.154;2023-04-27T08:39:16;100606.91;;;11.04;63.87
71465;BME280;59274;49.874;9.154;2023-04-27T08:41:42;100599.69;;;10.88;64.59
71465;BME280;59274;49.874;9.154;2023-04-27T08:44:08;100594.00;;;10.97;64.46
71465;BME280;59274;49.874;9.154;2023-04-27T08:46:35;100588.88;;;11.18;63.43
71465;BME280;59274;49.874;9.154;2023-04-27T08:49:01;100591.47;;;11.08;61.87
71465;BME280;59274;49.874;9.154;2023-04-27T08:51:27;100590.03;;;11.17;64.26
71465;BME280;59274;49.874;9.154;2023-04-27T08:53:54;100583.00;;;11.43;63.30
71465;BME280;59274;49.874;9.154;2023-04-27T08:56:23;100590.75;;;11.41;62.63
71465;BME280;59274;49.874;9.154;2023-04-27T08:58:52;100577.31;;;11.55;60.07
71465;BME280;59274;49.874;9.154;2023-04-27T09:01:18;100584.06;;;11.64;61.11
71465;BME280;59274;49.874;9.154;2023-04-27T09:03:45;100588.75;;;11.67;60.34
71465;BME280;59274;49.874;9.154;2023-04-27T09:06:14;100580.31;;;11.76;63.42
71465;BME280;59274;49.874;9.154;2023-04-27T09:08:47;100583.75;;;11.73;59.25
71465;BME280;59274;49.874;9.154;2023-04-27T09:11:34;100582.91;;;11.99;57.68
71465;BME280;59274;49.874;9.154;2023-04-27T09:14:03;100581.06;;;12.10;58.57
71465;BME280;59274;49.874;9.154;2023-04-27T09:16:39;100581.25;;;12.28;57.98
71465;BME280;59274;49.874;9.154;2023-04-27T09:19:05;100584.84;;;12.35;56.16
71465;BME280;59274;49.874;9.154;2023-04-27T09:21:30;100585.34;;;12.48;58.39
71465;BME280;59274;49.874;9.154;2023-04-27T09:23:56;100580.31;;;12.50;54.71
71465;BME280;59274;49.874;9.154;2023-04-27T09:26:24;100583.03;;;12.53;53.46
71465;BME280;59274;49.874;9.154;2023-04-27T09:28:53;100577.34;;;12.69;54.29
71465;BME280;59274;49.874;9.154;2023-04-27T09:31:19;100575.81;;;12.79;55.39
71465;BME280;59274;49.874;9.154;2023-04-27T09:33:45;100565.09;;;13.00;54.17
71465;BME280;59274;49.874;9.154;2023-04-27T09:36:12;100573.78;;;13.13;53.84
71465;BME280;59274;49.874;9.154;2023-04-27T09:38:37;100562.91;;;13.20;51.90
71465;BME280;59274;49.874;9.154;2023-04-27T09:41:03;100565.28;;;13.28;49.98
71465;BME280;59274;49.874;9.154;2023-04-27T09:43:29;100560.63;;;13.36;50.31
71465;BME280;59274;49.874;9.154;2023-04-27T09:45:56;100559.88;;;13.39;49.46
71465;BME280;59274;49.874;9.154;2023-04-27T09:48:23;100562.63;;;13.43;50.23
71465;BME280;59274;49.874;9.154;2023-04-27T09:50:50;100560.31;;;13.52;49.97
71465;BME280;59274;49.874;9.154;2023-04-27T09:53:19;100558.38;;;13.59;45.83
71465;BME280;59274;49.874;9.154;2023-04-27T10:01:47;100552.88;;;13.42;44.04
71465;BME280;59274;49.874;9.154;2023-04-27T10:07:14;100550.50;;;13.33;44.30
71465;BME280;59274;49.874;9.154;2023-04-27T10:09:44;100548.97;;;13.46;44.85
71465;BME280;59274;49.874;9.154;2023-04-27T10:17:15;100539.34;;;13.81;44.04
71465;BME280;59274;49.874;9.154;2023-04-27T10:19:52;100538.94;;;13.79;43.45
71465;BME280;59274;49.874;9.154;2023-04-27T10:22:19;100533.94;;;14.02;45.65
71465;BME280;59274;49.874;9.154;2023-04-27T10:24:50;100533.94;;;14.09;45.55
71465;BME280;59274;49.874;9.154;2023-04-27T10:27:19;100532.38;;;14.15;43.38
71465;BME280;59274;49.874;9.154;2023-04-27T10:29:47;100526.16;;;14.29;43.48
71465;BME280;59274;49.874;9.154;2023-04-27T10:32:23;100523.84;;;14.52;44.85
71465;BME280;59274;49.874;9.154;2023-04-27T10:34:50;100526.53;;;14.73;45.15
71465;BME280;59274;49.874;9.154;2023-04-27T10:37:17;100521.84;;;14.84;45.28
71465;BME280;59274;49.874;9.154;2023-04-27T10:39:45;100530.78;;;14.99;44.59
71465;BME280;59274;49.874;9.154;2023-04-27T10:42:10;100531.53;;;15.14;44.61
71465;BME280;59274;49.874;9.154;2023-04-27T10:44:37;100528.34;;;15.29;43.39
71465;BME280;59274;49.874;9.154;2023-04-27T10:47:16;100526.69;;;15.50;42.87
71465;BME280;59274;49.874;9.154;2023-04-27T10:49:44;100528.88;;;15.87;44.55
71465;BME280;59274;49.874;9.154;2023-04-27T10:52:09;100529.19;;;16.03;43.40
71465;BME280;59274;49.874;9.154;2023-04-27T10:54:35;100525.75;;;15.88;39.40
71465;BME280;59274;49.874;9.154;2023-04-27T10:57:03;100514.59;;;16.13;40.15
71465;BME280;59274;49.874;9.154;2023-04-27T10:59:29;100515.38;;;16.14;40.30
71465;BME280;59274;49.874;9.154;2023-04-27T11:01:57;100517.44;;;16.02;41.25
71465;BME280;59274;49.874;9.154;2023-04-27T11:04:23;100518.97;;;16.11;41.34
71465;BME280;59274;49.874;9.154;2023-04-27T11:06:48;100516.13;;;16.21;38.67
71465;BME280;59274;49.874;9.154;2023-04-27T11:09:27;100516.66;;;16.50;42.88
71465;BME280;59274;49.874;9.154;2023-04-27T11:11:52;100518.31;;;16.85;41.74
71465;BME280;59274;49.874;9.154;2023-04-27T11:14:21;100512.97;;;17.08;40.12
71465;BME280;59274;49.874;9.154;2023-04-27T11:16:47;100516.03;;;17.14;40.97
71465;BME280;59274;49.874;9.154;2023-04-27T11:19:13;100514.88;;;17.15;39.24
71465;BME280;59274;49.874;9.154;2023-04-27T11:21:38;100513.13;;;17.28;38.63
71465;BME280;59274;49.874;9.154;2023-04-27T11:24:07;100510.97;;;17.46;38.93
71465;BME280;59274;49.874;9.154;2023-04-27T11:26:34;100500.13;;;17.93;38.05
71465;BME280;59274;49.874;9.154;2023-04-27T11:31:42;100491.22;;;17.85;37.56
71465;BME280;59274;49.874;9.154;2023-04-27T11:34:23;100493.00;;;18.22;36.17
71465;BME280;59274;49.874;9.154;2023-04-27T11:37:05;100490.06;;;18.33;34.59
71465;BME280;59274;49.874;9.154;2023-04-27T11:39:34;100477.28;;;18.23;37.15
71465;BME280;59274;49.874;9.154;2023-04-27T11:42:23;100480.06;;;18.19;37.23
71465;BME280;59274;49.874;9.154;2023-04-27T11:44:56;100486.16;;;18.07;36.78
71465;BME280;59274;49.874;9.154;2023-04-27T11:47:24;100476.25;;;18.13;36.91
71465;BME280;59274;49.874;9.154;2023-04-27T11:50:00;100481.50;;;18.27;35.57
71465;BME280;59274;49.874;9.154;2023-04-27T11:52:34;100478.72;;;17.81;34.57
71465;BME280;59274;49.874;9.154;2023-04-27T11:55:01;100482.50;;;17.64;35.27
71465;BME280;59274;49.874;9.154;2023-04-27T11:57:32;100481.78;;;17.86;35.79
71465;BME280;59274;49.874;9.154;2023-04-27T12:00:00;100476.94;;;17.94;37.19
71465;BME280;59274;49.874;9.154;2023-04-27T12:02:26;100468.75;;;17.90;35.53
71465;BME280;59274;49.874;9.154;2023-04-27T12:04:52;100468.31;;;18.19;36.71
71465;BME280;59274;49.874;9.154;2023-04-27T12:07:18;100469.03;;;18.23;37.36
71465;BME280;59274;49.874;9.154;2023-04-27T12:09:44;100471.88;;;18.16;36.16
71465;BME280;59274;49.874;9.154;2023-04-27T12:12:10;100469.06;;;18.19;35.03
71465;BME280;59274;49.874;9.154;2023-04-27T12:14:37;100461.78;;;18.09;36.50
71465;BME280;59274;49.874;9.154;2023-04-27T12:17:02;100458.31;;;17.82;36.60
71465;BME280;59274;49.874;9.154;2023-04-27T12:19:28;100458.13;;;18.62;36.95
71465;BME280;59274;49.874;9.154;2023-04-27T12:21:54;100454.69;;;18.78;36.54
71465;BME280;59274;49.874;9.154;2023-04-27T12:24:20;100461.78;;;18.56;34.70
71465;BME280;59274;49.874;9.154;2023-04-27T12:26:47;100450.81;;;18.32;36.03
71465;BME280;59274;49.874;9.154;2023-04-27T12:29:13;100448.75;;;18.36;35.07
71465;BME280;59274;49.874;9.154;2023-04-27T12:31:38;100454.03;;;18.70;36.52
71465;BME280;59274;49.874;9.154;2023-04-27T12:34:04;100448.06;;;18.32;34.81
71465;BME280;59274;49.874;9.154;2023-04-27T12:36:29;100452.00;;;18.31;35.56
71465;BME280;59274;49.874;9.154;2023-04-27T12:39:12;100443.25;;;18.36;38.06
71465;BME280;59274;49.874;9.154;2023-04-27T12:41:39;100446.38;;;18.38;36.68
71465;BME280;59274;49.874;9.154;2023-04-27T12:44:04;100439.84;;;18.29;36.39
71465;BME280;59274;49.874;9.154;2023-04-27T12:46:31;100437.06;;;18.32;38.01
71465;BME280;59274;49.874;9.154;2023-04-27T12:48:56;100436.97;;;18.59;38.40
71465;BME280;59274;49.874;9.154;2023-04-27T12:51:22;100434.59;;;18.81;36.53
71465;BME280;59274;49.874;9.154;2023-04-27T12:53:48;100433.03;;;18.80;36.73
71465;BME280;59274;49.874;9.154;2023-04-27T12:56:13;100429.88;;;18.82;35.26
71465;BME280;59274;49.874;9.154;2023-04-27T12:58:39;100434.50;;;18.65;36.04
71465;BME280;59274;49.874;9.154;2023-04-27T13:01:05;100433.31;;;18.66;35.40
71465;BME280;59274;49.874;9.154;2023-04-27T13:03:39;100436.84;;;18.43;34.40
71465;BME280;59274;49.874;9.154;2023-04-27T13:06:04;100435.41;;;18.12;36.23